Ana Sayfa
METAR-TAF:

METAR-TAF

Havaalanları :

Stigler, Oklahoma, Amerika Birleşik Devletleri

Enlem: 35-17-17N, Boylam: 095-05-38W, yükseklik: 183 m

Güncel hava durumu gözlemi

Rapor saat 20:35 UTC de 29 dakika önce yapıldı.
Rüzgar doğu/güneydoğudan 6 kt
Sıcaklık 35°C
Nem 25%
Basınç 1015 hPa
Görüş mesafesi: 16.1 km
Açık gökyüzü

METAR: KGZL 172035Z AUTO 11006KT 10SM CLR 35/12 A2996 RMK AO2

Saat: 16:04 (21:04 UTC)


TAF: eksik

4.000'den fazla havaalanı için hava durumu gözlemleri ve tahminleri (METAR ve TAF raporları).

Kullanılabilir istasyonlar harita üzerinde sarı ve kırmızı noktalarla gösterilir.

İstasyonun adını görmek için fareyi noktanın üzerinde gezdirin.

Sonrasında hava gözlem ve tahminlerini görmek için tıklayın.

Haritayı değiştirmek için: yaklaştırmak için siyah artı işaretli yeşil düğmeye ve uzaklaştırmak için de eksi işaretli düğmeye hızla tıklayın; bitişik haritalar için yeşil okları kullanın.


METAR-TAF: